createdAt,value
2019-01-13T00:00:01.575Z,28.23
2019-01-13T00:02:30.759Z,25.87
2019-01-13T00:04:59.903Z,21.60
2019-01-13T00:07:28.903Z,17.73
2019-01-13T00:09:57.506Z,23.57
2019-01-13T00:12:26.179Z,23.40
2019-01-13T00:14:54.807Z,20.10
2019-01-13T00:17:25.344Z,19.33
2019-01-13T00:19:54.327Z,16.50
2019-01-13T00:22:23.563Z,15.63
2019-01-13T00:24:52.392Z,19.87
2019-01-13T00:27:21.395Z,20.83
2019-01-13T00:29:50.103Z,18.27
2019-01-13T00:32:18.710Z,21.20
2019-01-13T00:34:47.607Z,22.50
2019-01-13T00:37:16.215Z,22.17
2019-01-13T00:39:44.783Z,21.37
2019-01-13T00:42:13.339Z,26.73
2019-01-13T00:44:41.986Z,27.98
2019-01-13T00:47:10.667Z,21.87
2019-01-13T00:49:39.250Z,19.73
2019-01-13T00:52:07.874Z,21.30
2019-01-13T00:54:36.480Z,24.00
2019-01-13T00:57:05.206Z,18.40
2019-01-13T00:59:33.786Z,20.15
2019-01-13T01:02:02.408Z,22.10
2019-01-13T01:04:31.082Z,19.02
2019-01-13T01:06:59.998Z,20.40
2019-01-13T01:09:28.634Z,23.13
2019-01-13T01:11:57.274Z,21.82
2019-01-13T01:14:25.894Z,24.43
2019-01-13T01:16:54.492Z,17.90
2019-01-13T01:19:23.178Z,19.20
2019-01-13T01:21:51.787Z,22.70
2019-01-13T01:24:20.347Z,19.92
2019-01-13T01:26:50.886Z,18.20
2019-01-13T01:29:19.438Z,17.77
2019-01-13T01:31:48.366Z,17.63
2019-01-13T01:34:16.998Z,17.47
2019-01-13T01:36:45.623Z,18.20
2019-01-13T01:39:14.170Z,13.93
2019-01-13T01:41:42.811Z,13.17
2019-01-13T01:44:11.766Z,17.02
2019-01-13T01:46:40.383Z,16.57
2019-01-13T01:49:09.093Z,15.60
2019-01-13T01:51:37.698Z,17.97
2019-01-13T01:54:06.690Z,14.47
2019-01-13T01:56:35.659Z,16.80
2019-01-13T01:59:04.900Z,15.83
2019-01-13T02:01:33.602Z,15.47
2019-01-13T02:04:02.218Z,14.57
2019-01-13T02:06:30.842Z,16.63
2019-01-13T02:08:59.739Z,14.58
2019-01-13T02:11:28.312Z,18.40
2019-01-13T02:13:56.982Z,17.30
2019-01-13T02:16:25.654Z,16.13
2019-01-13T02:18:54.237Z,16.40
2019-01-13T02:21:22.878Z,15.87
2019-01-13T02:23:51.574Z,13.87
2019-01-13T02:26:21.030Z,16.40
2019-01-13T02:28:49.641Z,14.90
2019-01-13T02:31:18.247Z,14.87
2019-01-13T02:33:47.243Z,17.77
2019-01-13T02:36:15.848Z,15.73
2019-01-13T02:38:44.569Z,13.87
2019-01-13T02:41:13.481Z,18.27
2019-01-13T02:43:42.309Z,15.87
2019-01-13T02:46:11.009Z,14.77
2019-01-13T02:48:39.978Z,17.33
2019-01-13T02:51:08.885Z,16.50
2019-01-13T02:53:37.561Z,16.23
2019-01-13T02:56:06.207Z,17.70
2019-01-13T02:58:35.181Z,20.50
2019-01-13T03:01:04.481Z,17.93
2019-01-13T03:03:33.457Z,18.03
2019-01-13T03:06:02.234Z,15.18
2019-01-13T03:08:31.633Z,14.17
2019-01-13T03:11:00.219Z,17.97
2019-01-13T03:13:28.773Z,15.07
2019-01-13T03:15:57.391Z,17.65
2019-01-13T03:18:26.001Z,16.13
2019-01-13T03:20:55.250Z,14.37
2019-01-13T03:23:23.920Z,15.70
2019-01-13T03:25:52.916Z,13.62
2019-01-13T03:28:21.749Z,16.97
2019-01-13T03:30:50.692Z,14.17
2019-01-13T03:33:20.766Z,14.70
2019-01-13T03:35:49.729Z,14.93
2019-01-13T03:38:18.808Z,15.18
2019-01-13T03:40:47.445Z,14.03
2019-01-13T03:43:16.641Z,15.63
2019-01-13T03:45:45.195Z,15.35
2019-01-13T03:48:14.001Z,17.47
2019-01-13T03:50:42.961Z,15.57
2019-01-13T03:53:11.660Z,16.47
2019-01-13T03:55:40.581Z,17.27
2019-01-13T03:58:09.149Z,15.55
2019-01-13T04:00:37.758Z,14.97
2019-01-13T04:03:06.812Z,13.87
2019-01-13T04:05:35.885Z,20.27
2019-01-13T04:08:05.025Z,17.60
2019-01-13T04:10:33.653Z,14.27
2019-01-13T04:13:03.389Z,15.08
2019-01-13T04:15:45.525Z,16.20
2019-01-13T04:18:14.277Z,15.47
2019-01-13T04:20:42.888Z,16.20
2019-01-13T04:23:11.912Z,14.17
2019-01-13T04:25:40.517Z,15.43
2019-01-13T04:28:09.205Z,14.73
2019-01-13T04:30:38.104Z,16.10
2019-01-13T04:33:07.430Z,15.85
2019-01-13T04:35:36.337Z,15.05
2019-01-13T04:38:04.972Z,17.48
2019-01-13T04:40:33.584Z,13.97
2019-01-13T04:43:02.146Z,16.47
2019-01-13T04:45:30.842Z,13.60
2019-01-13T04:47:59.472Z,14.83
2019-01-13T04:50:28.014Z,13.83
2019-01-13T04:52:56.694Z,13.65
2019-01-13T04:55:25.370Z,12.40
2019-01-13T04:57:54.381Z,12.67
2019-01-13T05:00:23.212Z,11.15
2019-01-13T05:02:51.837Z,11.30
2019-01-13T05:05:20.461Z,9.20
2019-01-13T05:07:49.452Z,14.40
2019-01-13T05:10:19.552Z,13.33
2019-01-13T05:12:48.445Z,11.87
2019-01-13T05:15:18.780Z,11.95
2019-01-13T05:17:48.300Z,10.48
2019-01-13T05:20:18.685Z,12.50
2019-01-13T05:22:47.472Z,10.40
2019-01-13T05:25:16.137Z,12.00
2019-01-13T05:27:44.720Z,9.60
2019-01-13T05:30:15.885Z,15.53
2019-01-13T05:32:44.608Z,13.00
2019-01-13T05:35:13.385Z,13.97
2019-01-13T05:37:42.100Z,11.47
2019-01-13T05:40:12.848Z,11.43
2019-01-13T05:42:41.522Z,10.33
2019-01-13T05:45:11.080Z,10.97
2019-01-13T05:47:39.980Z,11.53
2019-01-13T05:50:10.972Z,12.97
2019-01-13T05:52:39.928Z,10.27
2019-01-13T05:55:08.661Z,15.30
2019-01-13T05:57:37.220Z,12.40
2019-01-13T06:00:07.364Z,13.07
2019-01-13T06:02:36.012Z,16.50
2019-01-13T06:05:05.539Z,18.23
2019-01-13T06:07:34.432Z,12.70
2019-01-13T06:10:03.191Z,16.93
2019-01-13T06:12:31.736Z,11.83
2019-01-13T06:15:00.532Z,13.53
2019-01-13T06:17:30.108Z,11.10
2019-01-13T06:19:59.750Z,23.20
2019-01-13T06:22:28.572Z,20.37
2019-01-13T06:24:57.120Z,16.97
2019-01-13T06:27:25.991Z,13.73
2019-01-13T06:29:54.584Z,13.10
2019-01-13T06:32:23.408Z,12.73
2019-01-13T06:34:52.552Z,16.93
2019-01-13T06:37:21.708Z,13.85
2019-01-13T06:39:50.312Z,15.33
2019-01-13T06:42:19.198Z,17.00
2019-01-13T06:44:48.064Z,20.40
2019-01-13T06:47:16.624Z,19.53
2019-01-13T06:49:45.487Z,17.70
2019-01-13T06:52:14.051Z,19.37
2019-01-13T06:54:43.019Z,16.53
2019-01-13T06:57:11.984Z,17.07
2019-01-13T06:59:40.667Z,15.73
2019-01-13T07:02:09.231Z,17.25
2019-01-13T07:04:37.863Z,17.80
2019-01-13T07:07:06.827Z,20.35
2019-01-13T07:09:35.879Z,21.20
2019-01-13T07:12:04.723Z,19.63
2019-01-13T07:14:33.288Z,16.00
2019-01-13T07:17:02.166Z,15.23
2019-01-13T07:19:30.720Z,16.10
2019-01-13T07:21:59.911Z,13.50
2019-01-13T07:24:28.511Z,15.58
2019-01-13T07:26:57.264Z,12.23
2019-01-13T07:29:25.883Z,17.40
2019-01-13T07:31:54.551Z,15.60
2019-01-13T07:34:23.140Z,19.03
2019-01-13T07:36:51.783Z,17.60
2019-01-13T07:39:20.779Z,17.10
2019-01-13T07:41:49.637Z,20.77
2019-01-13T07:44:18.267Z,21.80
2019-01-13T07:46:46.807Z,20.50
2019-01-13T07:49:15.503Z,18.70
2019-01-13T07:51:44.099Z,21.33
2019-01-13T07:54:13.403Z,17.20
2019-01-13T07:56:42.175Z,17.23
2019-01-13T07:59:10.731Z,18.80
2019-01-13T08:01:39.357Z,15.83
2019-01-13T08:04:07.949Z,11.90
2019-01-13T08:06:36.659Z,10.18
2019-01-13T08:09:08.189Z,13.55
2019-01-13T08:11:37.199Z,15.03
2019-01-13T08:14:05.863Z,12.30
2019-01-13T08:16:34.787Z,12.33
2019-01-13T08:19:03.389Z,15.77
2019-01-13T08:21:32.239Z,14.40
2019-01-13T08:24:00.774Z,12.77
2019-01-13T08:26:29.347Z,11.87
2019-01-13T08:28:57.959Z,14.67
2019-01-13T08:31:26.875Z,18.77
2019-01-13T08:33:55.891Z,16.13
2019-01-13T08:36:24.532Z,14.13
2019-01-13T08:38:53.838Z,13.03
2019-01-13T08:41:22.975Z,13.03
2019-01-13T08:43:51.686Z,11.67
2019-01-13T08:46:21.021Z,10.13
2019-01-13T08:48:49.595Z,13.57
2019-01-13T08:51:18.379Z,13.13
2019-01-13T08:53:47.382Z,12.18
2019-01-13T08:56:16.047Z,14.18
2019-01-13T08:58:44.907Z,15.72
2019-01-13T09:01:13.687Z,12.77
2019-01-13T09:03:42.603Z,12.73
2019-01-13T09:06:11.182Z,13.87
2019-01-13T09:08:39.802Z,14.18
2019-01-13T09:11:08.394Z,11.87
2019-01-13T09:13:37.046Z,14.18
2019-01-13T09:16:05.704Z,19.97
2019-01-13T09:18:34.694Z,18.07
2019-01-13T09:21:03.618Z,19.43
2019-01-13T09:23:32.834Z,22.83
2019-01-13T09:26:01.646Z,14.23
2019-01-13T09:28:31.266Z,18.03
2019-01-13T09:30:59.950Z,21.10
2019-01-13T09:33:28.546Z,18.98
2019-01-13T09:35:57.494Z,21.95
2019-01-13T09:38:26.454Z,15.60
2019-01-13T09:40:55.127Z,14.55
2019-01-13T09:43:23.864Z,17.03
2019-01-13T09:45:52.830Z,19.97
2019-01-13T09:48:22.486Z,21.83
2019-01-13T09:50:51.510Z,21.77
2019-01-13T09:53:20.150Z,22.97
2019-01-13T09:55:48.774Z,15.83
2019-01-13T09:58:17.402Z,32.93
2019-01-13T10:00:46.110Z,27.37
2019-01-13T10:03:14.810Z,22.27
2019-01-13T10:05:43.602Z,23.95
2019-01-13T10:08:12.470Z,12.68
2019-01-13T10:10:41.190Z,32.30
2019-01-13T10:13:09.998Z,23.20
2019-01-13T10:15:38.794Z,19.03
2019-01-13T10:18:07.523Z,29.12
2019-01-13T10:20:36.359Z,42.23
2019-01-13T10:23:05.314Z,19.03
2019-01-13T10:25:34.570Z,26.07
2019-01-13T10:28:03.202Z,26.50
2019-01-13T10:30:32.645Z,27.67
2019-01-13T10:33:01.481Z,21.85
2019-01-13T10:35:30.529Z,21.60
2019-01-13T10:37:59.666Z,15.83
2019-01-13T10:40:30.166Z,20.60
2019-01-13T10:43:00.489Z,27.30
2019-01-13T10:45:29.509Z,24.37
2019-01-13T10:47:58.189Z,23.53
2019-01-13T10:50:29.058Z,16.17
2019-01-13T10:53:00.008Z,15.97
2019-01-13T10:55:29.346Z,20.43
2019-01-13T10:57:58.053Z,15.80
2019-01-13T11:00:29.278Z,11.75
2019-01-13T11:03:01.985Z,13.67
2019-01-13T11:05:26.790Z,12.50
2019-01-13T11:07:56.369Z,13.17
2019-01-13T11:10:25.181Z,14.05
2019-01-13T11:12:54.012Z,15.83
2019-01-13T11:15:22.821Z,17.87
2019-01-13T11:17:51.723Z,24.47
2019-01-13T11:20:23.183Z,22.15
2019-01-13T11:22:52.703Z,18.00
2019-01-13T11:25:21.440Z,12.90
2019-01-13T11:27:50.859Z,16.47
2019-01-13T11:30:21.187Z,14.57
2019-01-13T11:32:49.851Z,13.90
2019-01-13T11:35:18.669Z,13.03
2019-01-13T11:37:47.848Z,12.03
2019-01-13T11:40:19.303Z,16.15
2019-01-13T11:42:47.832Z,23.20
2019-01-13T11:45:16.595Z,18.43
2019-01-13T11:47:45.316Z,14.05
2019-01-13T11:50:16.431Z,16.57
2019-01-13T11:52:45.119Z,16.53
2019-01-13T11:55:15.151Z,17.70
2019-01-13T11:57:43.813Z,19.47
2019-01-13T12:00:18.699Z,23.27
2019-01-13T12:02:47.651Z,17.42
2019-01-13T12:05:16.619Z,19.30
2019-01-13T12:07:45.413Z,17.17
2019-01-13T12:10:15.585Z,21.57
2019-01-13T12:12:44.231Z,19.15
2019-01-13T12:15:14.099Z,20.23
2019-01-13T12:17:42.651Z,13.40
2019-01-13T12:20:13.827Z,13.60
2019-01-13T12:22:43.675Z,11.87
2019-01-13T12:25:13.788Z,13.38
2019-01-13T12:27:42.593Z,20.12
2019-01-13T12:30:15.940Z,18.12
2019-01-13T12:32:44.859Z,16.27
2019-01-13T12:35:14.183Z,14.30
2019-01-13T12:37:42.735Z,9.35
2019-01-13T12:40:13.419Z,13.27
2019-01-13T12:42:42.794Z,13.85
2019-01-13T12:45:12.362Z,20.60
2019-01-13T12:47:40.968Z,16.57
2019-01-13T12:50:12.660Z,21.53
2019-01-13T12:52:41.774Z,14.95
2019-01-13T12:55:10.383Z,11.00
2019-01-13T12:57:39.205Z,15.20
2019-01-13T13:00:09.487Z,11.60
2019-01-13T13:02:38.587Z,15.18
2019-01-13T13:05:08.208Z,16.87
2019-01-13T13:07:36.742Z,17.23
2019-01-13T13:10:09.423Z,18.95
2019-01-13T13:12:44.054Z,13.65
2019-01-13T13:15:12.676Z,17.73
2019-01-13T13:17:50.289Z,19.10
2019-01-13T13:20:18.950Z,14.90
2019-01-13T13:22:47.490Z,20.85
2019-01-13T13:25:16.022Z,15.73
2019-01-13T13:27:46.709Z,18.07
2019-01-13T13:30:18.690Z,15.32
2019-01-13T13:32:47.329Z,15.00
2019-01-13T13:35:17.822Z,26.93
2019-01-13T13:37:46.431Z,17.33
2019-01-13T13:40:17.193Z,13.60
2019-01-13T13:42:45.874Z,21.27
2019-01-13T13:45:14.414Z,16.40
2019-01-13T13:47:43.026Z,22.30
2019-01-13T13:50:13.893Z,19.70
2019-01-13T13:52:42.518Z,21.42
2019-01-13T13:55:11.306Z,13.03
2019-01-13T13:57:39.897Z,15.32
2019-01-13T14:00:20.110Z,15.87
2019-01-13T14:02:48.807Z,12.17
2019-01-13T14:05:17.565Z,14.55
2019-01-13T14:07:46.210Z,15.73
2019-01-13T14:10:24.685Z,15.10
2019-01-13T14:12:53.300Z,15.37
2019-01-13T14:15:22.231Z,19.60
2019-01-13T14:17:50.927Z,26.07
2019-01-13T14:20:19.913Z,31.80
2019-01-13T14:22:48.439Z,23.00
2019-01-13T14:25:17.333Z,22.17
2019-01-13T14:27:46.702Z,15.78
2019-01-13T14:30:17.786Z,16.52
2019-01-13T14:32:46.379Z,15.23
2019-01-13T14:35:14.898Z,14.30
2019-01-13T14:37:43.883Z,19.13
2019-01-13T14:40:15.321Z,18.37
2019-01-13T14:42:44.089Z,19.57
2019-01-13T14:45:15.107Z,16.60
2019-01-13T14:47:43.880Z,16.37
2019-01-13T14:50:16.039Z,15.88
2019-01-13T14:52:44.954Z,17.37
2019-01-13T14:55:14.434Z,15.00
2019-01-13T14:57:43.406Z,15.27
2019-01-13T15:00:16.397Z,16.10
2019-01-13T15:02:45.281Z,16.77
2019-01-13T15:05:14.153Z,15.33
2019-01-13T15:07:42.808Z,17.97
2019-01-13T15:10:11.894Z,18.97
2019-01-13T15:12:40.934Z,13.57
2019-01-13T15:15:10.364Z,18.97
2019-01-13T15:17:38.998Z,21.10
2019-01-13T15:20:10.603Z,12.18
2019-01-13T15:22:39.686Z,15.77
2019-01-13T15:25:10.328Z,19.67
2019-01-13T15:27:39.014Z,16.32
2019-01-13T15:30:12.928Z,17.82
2019-01-13T15:32:42.208Z,15.80
2019-01-13T15:35:11.136Z,17.43
2019-01-13T15:37:39.832Z,18.32
2019-01-13T15:40:10.316Z,16.23
2019-01-13T15:42:38.910Z,19.70
2019-01-13T15:45:08.236Z,18.87
2019-01-13T15:47:36.773Z,20.12
2019-01-13T15:50:07.693Z,16.75
2019-01-13T15:52:36.261Z,20.17
2019-01-13T15:55:05.518Z,14.15
2019-01-13T15:57:34.084Z,11.43
2019-01-13T16:00:03.721Z,17.80
2019-01-13T16:02:32.400Z,13.55
2019-01-13T16:05:01.133Z,13.57
2019-01-13T16:07:29.689Z,15.77
2019-01-13T16:09:58.517Z,17.17
2019-01-13T16:12:27.388Z,18.67
2019-01-13T16:14:56.024Z,18.55
2019-01-13T16:17:24.553Z,15.23
2019-01-13T16:19:53.369Z,17.82
2019-01-13T16:22:21.972Z,14.70
2019-01-13T16:24:50.592Z,13.05
2019-01-13T16:27:19.576Z,16.60
2019-01-13T16:29:48.128Z,15.87
2019-01-13T16:32:16.732Z,16.43
2019-01-13T16:34:45.496Z,11.57
2019-01-13T16:37:14.324Z,16.20
2019-01-13T16:39:43.123Z,12.00
2019-01-13T16:42:11.683Z,10.88
2019-01-13T16:44:40.627Z,16.67
2019-01-13T16:47:09.200Z,12.80
2019-01-13T16:49:37.874Z,21.82
2019-01-13T16:52:06.485Z,15.50
2019-01-13T16:54:35.099Z,14.05
2019-01-13T16:57:03.732Z,16.57
2019-01-13T16:59:32.879Z,13.32
2019-01-13T17:02:01.462Z,15.93
2019-01-13T17:04:30.207Z,14.18
2019-01-13T17:06:58.768Z,11.30
2019-01-13T17:09:27.311Z,15.50
2019-01-13T17:11:55.999Z,10.32
2019-01-13T17:14:24.855Z,14.35
2019-01-13T17:16:53.530Z,12.07
2019-01-13T17:19:22.136Z,14.03
2019-01-13T17:21:50.944Z,12.13
2019-01-13T17:24:19.544Z,12.93
2019-01-13T17:26:48.260Z,11.83
2019-01-13T17:29:17.115Z,12.13
2019-01-13T17:31:45.839Z,13.58
2019-01-13T17:34:14.834Z,11.53
2019-01-13T17:36:43.576Z,14.27
2019-01-13T17:39:13.468Z,11.95
2019-01-13T17:41:40.805Z,9.80
2019-01-13T17:44:11.496Z,10.28
2019-01-13T17:46:40.459Z,10.87
2019-01-13T17:49:09.027Z,9.20
2019-01-13T17:51:37.628Z,10.55
2019-01-13T17:54:06.271Z,10.17
2019-01-13T17:56:34.851Z,9.93
2019-01-13T17:59:03.467Z,10.63
2019-01-13T18:01:35.603Z,9.80
2019-01-13T18:04:04.799Z,9.67
2019-01-13T18:06:33.463Z,10.78
2019-01-13T18:09:02.358Z,10.40
2019-01-13T18:11:31.503Z,10.60
2019-01-13T18:14:00.382Z,11.12
2019-01-13T18:16:28.938Z,8.97
2019-01-13T18:18:57.859Z,9.33
2019-01-13T18:21:27.868Z,8.47
2019-01-13T18:23:56.443Z,8.60
2019-01-13T18:26:25.080Z,12.57
2019-01-13T18:28:53.900Z,9.17
2019-01-13T18:31:22.648Z,8.95
2019-01-13T18:33:51.556Z,12.10
2019-01-13T18:36:20.447Z,8.57
2019-01-13T18:38:49.258Z,10.15
2019-01-13T18:41:18.363Z,10.07
2019-01-13T18:43:47.016Z,8.23
2019-01-13T18:46:15.953Z,13.38
2019-01-13T18:48:44.850Z,10.20
2019-01-13T18:51:13.616Z,10.67
2019-01-13T18:53:42.204Z,9.70
2019-01-13T18:56:10.875Z,10.70
2019-01-13T18:58:39.620Z,7.87
2019-01-13T19:01:08.680Z,9.95
2019-01-13T19:03:37.475Z,9.00
2019-01-13T19:06:06.229Z,8.88
2019-01-13T19:08:36.445Z,8.77
2019-01-13T19:11:18.680Z,7.95
2019-01-13T19:14:52.828Z,9.67
2019-01-13T19:17:23.829Z,9.73
2019-01-13T19:20:12.225Z,9.20
2019-01-13T19:22:43.203Z,9.98
2019-01-13T19:25:19.238Z,10.28
2019-01-13T19:27:47.763Z,12.20
2019-01-13T19:30:16.407Z,9.50
2019-01-13T19:32:45.258Z,12.80
2019-01-13T19:35:14.459Z,10.93
2019-01-13T19:37:43.006Z,12.40
2019-01-13T19:40:13.266Z,8.45
2019-01-13T19:42:41.862Z,9.33
2019-01-13T19:45:11.719Z,9.30
2019-01-13T19:47:40.462Z,9.57
2019-01-13T19:50:11.684Z,8.13
2019-01-13T19:52:40.750Z,11.33
2019-01-13T19:55:29.431Z,9.77
2019-01-13T19:57:58.142Z,8.97
2019-01-13T20:00:33.862Z,10.20
2019-01-13T20:03:02.526Z,8.08
2019-01-13T20:05:31.013Z,11.23
2019-01-13T20:07:59.739Z,12.80
2019-01-13T20:10:28.695Z,15.63
2019-01-13T20:12:57.325Z,13.80
2019-01-13T20:15:26.121Z,18.03
2019-01-13T20:17:54.719Z,15.63
2019-01-13T20:20:23.604Z,15.88
2019-01-13T20:22:52.254Z,16.00
2019-01-13T20:25:21.153Z,13.23
2019-01-13T20:27:49.753Z,12.18
2019-01-13T20:30:20.493Z,9.53
2019-01-13T20:32:49.337Z,7.75
2019-01-13T20:35:19.333Z,10.40
2019-01-13T20:37:47.136Z,9.08
2019-01-13T20:40:15.846Z,11.87
2019-01-13T20:42:44.712Z,11.87
2019-01-13T20:45:16.446Z,11.22
2019-01-13T20:47:45.209Z,12.17
2019-01-13T20:50:14.405Z,14.23
2019-01-13T20:52:43.503Z,13.00
2019-01-13T20:55:12.949Z,12.60
2019-01-13T20:57:43.105Z,13.38
2019-01-13T21:00:16.225Z,11.25
2019-01-13T21:02:46.375Z,12.07
2019-01-13T21:05:15.171Z,14.03
2019-01-13T21:07:44.479Z,16.65
2019-01-13T21:10:13.611Z,15.87
2019-01-13T21:14:11.620Z,13.37
2019-01-13T21:16:40.867Z,12.68
2019-01-13T21:19:09.632Z,13.03
2019-01-13T21:21:38.473Z,11.37
2019-01-13T21:24:07.100Z,12.50
2019-01-13T21:26:35.761Z,9.98
2019-01-13T21:29:04.782Z,14.73
2019-01-13T21:31:33.674Z,12.70
2019-01-13T21:34:02.223Z,15.17
2019-01-13T21:36:31.231Z,15.63
2019-01-13T21:38:59.914Z,16.67
2019-01-13T21:41:28.809Z,18.57
2019-01-13T21:43:57.651Z,14.07
2019-01-13T21:46:26.376Z,18.55
2019-01-13T21:48:56.538Z,18.83
2019-01-13T21:51:25.386Z,19.75
2019-01-13T21:53:54.739Z,18.23
2019-01-13T21:56:23.594Z,16.62
2019-01-13T21:58:52.494Z,17.55
2019-01-13T22:01:21.372Z,13.58
2019-01-13T22:03:50.132Z,18.27
2019-01-13T22:06:18.945Z,15.03
2019-01-13T22:08:47.700Z,14.10
2019-01-13T22:11:16.540Z,13.48
2019-01-13T22:13:45.656Z,15.30
2019-01-13T22:16:14.436Z,10.50
2019-01-13T22:18:43.204Z,10.40
2019-01-13T22:21:12.000Z,13.87
2019-01-13T22:23:40.736Z,9.95
2019-01-13T22:26:09.432Z,8.18
2019-01-13T22:28:38.188Z,7.97
2019-01-13T22:31:09.800Z,7.37
2019-01-13T22:33:39.012Z,12.60
2019-01-13T22:36:07.801Z,6.37
2019-01-13T22:38:36.571Z,7.30
2019-01-13T22:41:05.339Z,11.22
2019-01-13T22:43:34.152Z,9.63
2019-01-13T22:46:02.955Z,7.20
2019-01-13T22:48:33.745Z,6.28
2019-01-13T23:03:58.444Z,7.22
2019-01-13T23:06:27.715Z,5.50
2019-01-13T23:08:58.012Z,6.65
2019-01-13T23:11:27.359Z,8.63
2019-01-13T23:13:56.427Z,6.20
2019-01-13T23:16:25.295Z,6.10
2019-01-13T23:18:54.187Z,6.77
2019-01-13T23:21:22.931Z,6.00
2019-01-13T23:23:51.719Z,9.17
2019-01-13T23:26:20.463Z,5.77
2019-01-13T23:28:49.591Z,5.33
2019-01-13T23:31:18.319Z,4.93
2019-01-13T23:33:47.135Z,8.20
2019-01-13T23:36:15.946Z,7.40
2019-01-13T23:38:44.707Z,7.43
2019-01-13T23:41:13.755Z,5.40
2019-01-13T23:43:42.547Z,5.67
2019-01-13T23:46:11.283Z,6.60
2019-01-13T23:48:40.039Z,5.70
2019-01-13T23:51:09.179Z,5.73
2019-01-13T23:53:37.989Z,8.87
2019-01-13T23:56:06.747Z,6.27
2019-01-13T23:58:35.538Z,6.07
